createdAt,value
2018-09-14T00:00:21.840Z,88.30
2018-09-14T00:02:50.060Z,88.04
2018-09-14T00:05:18.263Z,88.29
2018-09-14T00:07:46.292Z,88.29
2018-09-14T00:10:14.880Z,88.38
2018-09-14T00:12:42.897Z,88.53
2018-09-14T00:15:10.881Z,88.64
2018-09-14T00:17:39.148Z,88.00
2018-09-14T00:20:07.890Z,87.49
2018-09-14T00:22:35.948Z,87.48
2018-09-14T00:25:04.025Z,88.02
2018-09-14T00:27:32.019Z,87.87
2018-09-14T00:29:59.990Z,88.31
2018-09-14T00:32:29.885Z,88.01
2018-09-14T00:34:57.915Z,87.92
2018-09-14T00:37:26.065Z,87.84
2018-09-14T00:39:54.018Z,88.13
2018-09-14T00:42:22.270Z,87.82
2018-09-14T00:44:50.266Z,88.03
2018-09-14T00:47:18.260Z,87.91
2018-09-14T00:49:46.325Z,87.82
2018-09-14T00:52:14.786Z,87.98
2018-09-14T00:54:42.795Z,87.81
2018-09-14T00:57:11.023Z,87.89
2018-09-14T00:59:39.457Z,88.14
2018-09-14T01:02:07.466Z,87.86
2018-09-14T01:04:35.530Z,88.17
2018-09-14T01:07:04.281Z,87.84
2018-09-14T01:09:40.440Z,87.98
2018-09-14T01:12:08.956Z,88.26
2018-09-14T01:17:45.775Z,88.73
2018-09-14T01:20:13.884Z,88.26
2018-09-14T01:22:42.100Z,88.31
2018-09-14T01:25:10.184Z,88.25
2018-09-14T01:27:38.178Z,88.10
2018-09-14T01:30:06.856Z,88.18
2018-09-14T01:32:35.034Z,88.31
2018-09-14T01:35:07.644Z,88.16
2018-09-14T01:37:35.756Z,88.67
2018-09-14T01:40:03.996Z,89.26
2018-09-14T01:42:32.276Z,88.73
2018-09-14T01:45:00.367Z,88.12
2018-09-14T01:47:28.576Z,88.18
2018-09-14T01:49:56.856Z,87.80
2018-09-14T01:52:24.825Z,87.58
2018-09-14T01:54:53.081Z,87.82
2018-09-14T01:57:21.160Z,88.28
2018-09-14T01:59:49.227Z,87.78
2018-09-14T02:02:17.402Z,87.95
2018-09-14T02:04:45.469Z,87.94
2018-09-14T02:07:14.103Z,87.34
2018-09-14T02:09:42.180Z,88.04
2018-09-14T02:12:10.398Z,88.06
2018-09-14T02:14:38.696Z,87.93
2018-09-14T02:17:07.216Z,87.42
2018-09-14T02:19:35.285Z,86.96
2018-09-14T02:22:03.517Z,87.02
2018-09-14T02:24:31.796Z,87.20
2018-09-14T02:26:59.790Z,87.25
2018-09-14T02:29:27.768Z,87.83
2018-09-14T02:31:55.773Z,88.10
2018-09-14T02:34:24.188Z,88.14
2018-09-14T02:36:58.808Z,88.02
2018-09-14T02:39:26.966Z,87.64
2018-09-14T02:41:54.940Z,87.52
2018-09-14T02:44:23.034Z,87.26
2018-09-14T02:46:51.123Z,87.53
2018-09-14T02:49:19.462Z,87.63
2018-09-14T02:51:47.907Z,87.68
2018-09-14T02:54:16.539Z,88.27
2018-09-14T02:56:44.842Z,88.25
2018-09-14T02:59:12.828Z,87.87
2018-09-14T03:01:41.140Z,87.99
2018-09-14T03:04:09.356Z,87.86
2018-09-14T03:06:37.599Z,88.14
2018-09-14T03:09:07.928Z,88.06
2018-09-14T03:11:36.491Z,88.04
2018-09-14T03:14:04.689Z,87.93
2018-09-14T03:16:32.969Z,87.86
2018-09-14T03:19:01.690Z,87.99
2018-09-14T03:21:30.142Z,87.89
2018-09-14T03:23:58.422Z,88.61
2018-09-14T03:26:26.691Z,89.56
2018-09-14T03:28:54.871Z,89.37
2018-09-14T03:31:23.136Z,89.69
2018-09-14T03:33:51.291Z,89.51
2018-09-14T03:36:19.538Z,90.13
2018-09-14T03:38:48.014Z,90.01
2018-09-14T03:41:16.285Z,89.95
2018-09-14T03:43:44.353Z,90.35
2018-09-14T03:46:12.447Z,90.25
2018-09-14T03:48:40.665Z,90.45
2018-09-14T03:51:09.045Z,90.21
2018-09-14T03:53:37.265Z,90.04
2018-09-14T03:56:05.354Z,89.41
2018-09-14T03:58:33.499Z,89.41
2018-09-14T04:01:01.802Z,89.99
2018-09-14T04:03:29.833Z,90.04
2018-09-14T04:05:58.140Z,89.83
2018-09-14T04:08:26.276Z,89.98
2018-09-14T04:10:54.590Z,90.19
2018-09-14T04:13:22.856Z,89.76
2018-09-14T04:15:51.067Z,90.18
2018-09-14T04:18:19.129Z,89.85
2018-09-14T04:20:47.408Z,89.55
2018-09-14T04:23:15.871Z,88.97
2018-09-14T04:25:43.869Z,89.24
2018-09-14T04:28:11.968Z,89.62
2018-09-14T04:30:40.540Z,89.90
2018-09-14T04:33:08.704Z,89.24
2018-09-14T04:35:36.699Z,89.81
2018-09-14T04:38:04.945Z,89.16
2018-09-14T04:40:33.263Z,89.15
2018-09-14T04:43:01.451Z,89.45
2018-09-14T04:45:29.871Z,89.57
2018-09-14T04:47:57.990Z,89.78
2018-09-14T04:50:26.217Z,89.59
2018-09-14T04:52:54.479Z,89.62
2018-09-14T04:55:22.586Z,89.42
2018-09-14T04:57:50.823Z,89.78
2018-09-14T05:00:19.091Z,89.59
2018-09-14T05:02:47.410Z,89.81
2018-09-14T05:05:15.704Z,89.23
2018-09-14T05:07:44.292Z,88.75
2018-09-14T05:10:12.456Z,88.46
2018-09-14T05:12:40.740Z,87.87
2018-09-14T05:15:08.900Z,87.79
2018-09-14T05:17:37.171Z,88.37
2018-09-14T05:20:05.331Z,88.06
2018-09-14T05:22:33.631Z,88.10
2018-09-14T05:25:01.818Z,87.91
2018-09-14T05:27:30.041Z,88.03
2018-09-14T05:29:58.301Z,88.58
2018-09-14T05:32:26.369Z,88.51
2018-09-14T05:34:54.606Z,88.74
2018-09-14T05:37:22.763Z,88.87
2018-09-14T05:39:50.891Z,89.07
2018-09-14T05:42:19.072Z,88.87
2018-09-14T05:44:47.238Z,88.46
2018-09-14T05:47:15.428Z,88.49
2018-09-14T05:49:43.652Z,88.58
2018-09-14T05:52:11.925Z,88.87
2018-09-14T05:54:40.325Z,89.06
2018-09-14T05:57:08.084Z,89.16
2018-09-14T05:59:36.284Z,89.39
2018-09-14T06:02:04.503Z,89.64
2018-09-14T06:04:32.783Z,89.33
2018-09-14T06:07:01.022Z,90.04
2018-09-14T06:09:29.267Z,89.96
2018-09-14T06:11:57.442Z,90.16
2018-09-14T06:14:25.665Z,90.70
2018-09-14T06:16:53.910Z,90.71
2018-09-14T06:19:22.142Z,90.82
2018-09-14T06:21:50.388Z,91.63
2018-09-14T06:24:18.588Z,91.29
2018-09-14T06:26:46.806Z,90.91
2018-09-14T06:29:15.388Z,90.91
2018-09-14T06:31:43.522Z,90.48
2018-09-14T06:34:11.786Z,90.38
2018-09-14T06:36:39.914Z,90.69
2018-09-14T06:39:10.442Z,90.65
2018-09-14T06:41:38.723Z,90.06
2018-09-14T06:44:07.010Z,90.12
2018-09-14T06:46:35.014Z,90.38
2018-09-14T06:49:04.965Z,90.16
2018-09-14T06:51:33.366Z,89.97
2018-09-14T06:54:01.684Z,89.98
2018-09-14T06:56:29.688Z,90.07
2018-09-14T06:58:57.932Z,89.57
2018-09-14T07:01:26.161Z,89.66
2018-09-14T07:03:54.352Z,89.29
2018-09-14T07:06:22.572Z,89.54
2018-09-14T07:08:50.809Z,89.28
2018-09-14T07:11:18.822Z,88.48
2018-09-14T07:13:47.279Z,88.03
2018-09-14T07:16:15.555Z,87.95
2018-09-14T07:18:43.800Z,88.12
2018-09-14T07:21:11.957Z,88.32
2018-09-14T07:23:40.291Z,86.68
2018-09-14T07:26:08.355Z,86.61
2018-09-14T07:28:36.547Z,87.56
2018-09-14T07:31:05.142Z,87.96
2018-09-14T07:33:33.341Z,88.00
2018-09-14T07:36:01.512Z,87.27
2018-09-14T07:38:29.889Z,86.85
2018-09-14T07:40:58.135Z,87.25
2018-09-14T07:43:26.234Z,86.94
2018-09-14T07:45:54.313Z,86.99
2018-09-14T07:48:22.432Z,87.45
2018-09-14T07:50:50.928Z,87.83
2018-09-14T07:53:19.348Z,86.76
2018-09-14T07:55:47.740Z,86.09
2018-09-14T07:58:15.954Z,84.33
2018-09-14T08:00:44.366Z,84.92
2018-09-14T08:03:12.376Z,84.26
2018-09-14T08:05:40.657Z,84.14
2018-09-14T08:08:08.846Z,85.31
2018-09-14T08:10:37.130Z,84.24
2018-09-14T08:13:05.562Z,84.64
2018-09-14T08:15:34.067Z,84.63
2018-09-14T08:18:02.239Z,83.25
2018-09-14T08:20:30.932Z,83.29
2018-09-14T08:22:59.015Z,83.82
2018-09-14T08:25:27.218Z,82.88
2018-09-14T08:27:55.303Z,82.62
2018-09-14T08:30:23.597Z,82.51
2018-09-14T08:32:51.797Z,80.56
2018-09-14T08:35:20.056Z,79.98
2018-09-14T08:37:48.420Z,80.02
2018-09-14T08:40:16.846Z,78.27
2018-09-14T08:42:45.232Z,73.35
2018-09-14T08:45:13.492Z,71.26
2018-09-14T08:47:41.873Z,71.65
2018-09-14T08:50:10.166Z,70.87
2018-09-14T08:52:38.246Z,72.07
2018-09-14T08:55:06.694Z,74.09
2018-09-14T08:57:34.954Z,74.79
2018-09-14T09:00:03.178Z,74.15
2018-09-14T09:02:31.295Z,72.57
2018-09-14T09:04:59.682Z,73.28
2018-09-14T09:07:27.993Z,74.37
2018-09-14T09:09:56.385Z,73.44
2018-09-14T09:12:24.574Z,73.58
2018-09-14T09:14:53.054Z,74.39
2018-09-14T09:17:21.245Z,71.22
2018-09-14T09:19:49.512Z,72.16
2018-09-14T09:22:17.807Z,71.28
2018-09-14T09:24:46.273Z,69.85
2018-09-14T09:27:14.393Z,68.18
2018-09-14T09:29:42.601Z,66.65
2018-09-14T09:32:10.815Z,68.57
2018-09-14T09:34:39.041Z,67.53
2018-09-14T09:37:07.474Z,68.50
2018-09-14T09:39:36.285Z,70.58
2018-09-14T09:42:04.693Z,70.39
2018-09-14T09:44:32.873Z,68.89
2018-09-14T09:47:01.332Z,69.35
2018-09-14T09:49:29.793Z,69.85
2018-09-14T09:51:58.193Z,72.86
2018-09-14T09:54:26.295Z,71.69
2018-09-14T09:56:54.625Z,70.08
2018-09-14T09:59:22.940Z,72.06
2018-09-14T10:01:56.696Z,70.80
2018-09-14T10:05:30.674Z,71.23
2018-09-14T10:07:58.813Z,70.54
2018-09-14T10:10:27.185Z,71.72
2018-09-14T10:12:55.473Z,71.29
2018-09-14T10:15:25.053Z,72.05
2018-09-14T10:17:53.313Z,69.91
2018-09-14T10:20:21.533Z,67.68
2018-09-14T10:22:49.935Z,67.12
2018-09-14T10:25:18.297Z,67.02
2018-09-14T10:27:46.533Z,68.64
2018-09-14T10:30:15.613Z,68.59
2018-09-14T10:32:44.844Z,69.27
2018-09-14T10:35:13.156Z,71.29
2018-09-14T10:37:41.687Z,69.59
2018-09-14T10:40:10.027Z,70.00
2018-09-14T10:42:38.344Z,71.59
2018-09-14T10:45:06.700Z,72.98
2018-09-14T10:47:35.055Z,70.80
2018-09-14T10:50:03.423Z,70.06
2018-09-14T10:52:31.975Z,70.41
2018-09-14T10:55:00.453Z,68.89
2018-09-14T10:57:28.787Z,67.38
2018-09-14T10:59:57.243Z,63.22
2018-09-14T11:02:25.595Z,59.74
2018-09-14T11:04:53.855Z,56.47
2018-09-14T11:07:22.288Z,55.16
2018-09-14T11:09:50.646Z,55.24
2018-09-14T11:12:19.035Z,51.37
2018-09-14T11:14:48.294Z,50.78
2018-09-14T11:17:16.707Z,50.90
2018-09-14T11:19:44.976Z,50.57
2018-09-14T11:22:13.755Z,51.62
2018-09-14T11:24:42.212Z,52.48
2018-09-14T11:27:11.576Z,52.34
2018-09-14T11:29:39.836Z,53.98
2018-09-14T11:32:08.296Z,57.03
2018-09-14T11:34:37.077Z,57.22
2018-09-14T11:37:06.077Z,57.53
2018-09-14T11:39:34.336Z,55.03
2018-09-14T11:42:02.655Z,55.32
2018-09-14T11:44:31.122Z,55.65
2018-09-14T11:46:59.436Z,53.36
2018-09-14T11:49:27.596Z,52.57
2018-09-14T11:51:55.988Z,52.38
2018-09-14T11:54:24.262Z,53.39
2018-09-14T11:56:52.688Z,51.76
2018-09-14T11:59:20.896Z,51.08
2018-09-14T12:01:49.541Z,50.68
2018-09-14T12:04:17.943Z,50.14
2018-09-14T12:06:47.796Z,49.97
2018-09-14T12:09:16.108Z,50.81
2018-09-14T12:11:46.339Z,51.38
2018-09-14T12:14:14.936Z,51.49
2018-09-14T12:16:43.264Z,50.20
2018-09-14T12:19:12.537Z,52.04
2018-09-14T12:21:40.892Z,52.55
2018-09-14T12:24:09.757Z,52.12
2018-09-14T12:26:41.416Z,49.11
2018-09-14T12:29:09.778Z,50.03
2018-09-14T12:31:38.517Z,50.18
2018-09-14T12:34:07.348Z,50.18
2018-09-14T12:36:35.736Z,49.87
2018-09-14T12:39:06.818Z,50.03
2018-09-14T12:41:35.396Z,50.63
2018-09-14T12:44:03.825Z,50.69
2018-09-14T12:46:32.197Z,50.97
2018-09-14T12:51:34.436Z,52.06
2018-09-14T12:54:02.708Z,50.40
2018-09-14T12:56:39.729Z,51.97
2018-09-14T12:59:08.376Z,51.25
2018-09-14T13:01:36.728Z,51.90
2018-09-14T13:04:06.769Z,50.88
2018-09-14T13:06:35.248Z,51.31
2018-09-14T13:09:04.104Z,52.66
2018-09-14T13:11:32.996Z,52.38
2018-09-14T13:14:01.576Z,52.36
2018-09-14T13:16:29.949Z,52.57
2018-09-14T13:18:58.477Z,51.59
2018-09-14T13:21:27.676Z,52.40
2018-09-14T13:23:57.036Z,52.20
2018-09-14T13:26:26.729Z,51.23
2018-09-14T13:28:56.128Z,51.99
2018-09-14T13:31:24.371Z,51.21
2018-09-14T13:33:52.628Z,51.50
2018-09-14T13:36:20.803Z,50.36
2018-09-14T13:38:49.311Z,52.27
2018-09-14T13:41:17.774Z,52.31
2018-09-14T13:43:45.891Z,52.53
2018-09-14T13:46:14.223Z,51.25
2018-09-14T13:48:43.583Z,50.46
2018-09-14T13:51:11.811Z,51.35
2018-09-14T13:53:40.755Z,51.72
2018-09-14T13:56:08.971Z,51.80
2018-09-14T13:58:38.290Z,50.76
2018-09-14T14:01:06.889Z,50.79
2018-09-14T14:03:37.224Z,49.78
2018-09-14T14:06:06.771Z,49.80
2018-09-14T14:08:36.432Z,48.93
2018-09-14T14:11:06.303Z,49.25
2018-09-14T14:13:34.631Z,50.69
2018-09-14T14:16:03.687Z,49.91
2018-09-14T14:18:31.913Z,50.04
2018-09-14T14:21:00.728Z,50.59
2018-09-14T14:23:29.051Z,51.30
2018-09-14T14:25:57.359Z,51.36
2018-09-14T14:28:25.687Z,51.23
2018-09-14T14:30:54.411Z,50.73
2018-09-14T14:33:23.593Z,49.42
2018-09-14T14:35:53.282Z,49.38
2018-09-14T14:38:21.644Z,49.75
2018-09-14T14:40:49.943Z,49.57
2018-09-14T14:43:18.163Z,49.73
2018-09-14T14:45:46.423Z,50.42
2018-09-14T14:48:14.612Z,49.77
2018-09-14T14:50:43.060Z,50.71
2018-09-14T14:53:11.336Z,50.43
2018-09-14T14:55:39.604Z,50.15
2018-09-14T14:58:10.856Z,49.55
2018-09-14T15:00:39.140Z,49.10
2018-09-14T15:03:09.764Z,49.14
2018-09-14T15:05:38.024Z,50.58
2018-09-14T15:08:06.464Z,50.59
2018-09-14T15:10:34.907Z,49.31
2018-09-14T15:13:03.696Z,49.56
2018-09-14T15:15:32.336Z,50.41
2018-09-14T15:18:00.623Z,50.47
2018-09-14T15:20:28.944Z,51.73
2018-09-14T15:22:57.464Z,51.87
2018-09-14T15:25:25.764Z,50.78
2018-09-14T15:27:56.364Z,50.72
2018-09-14T15:30:24.784Z,50.72
2018-09-14T15:32:53.344Z,50.85
2018-09-14T15:35:21.969Z,51.42
2018-09-14T15:37:50.384Z,51.31
2018-09-14T15:40:18.692Z,50.76
2018-09-14T15:42:46.799Z,50.97
2018-09-14T15:45:15.016Z,50.60
2018-09-14T15:47:43.276Z,50.49
2018-09-14T15:50:11.436Z,50.32
2018-09-14T15:52:39.621Z,50.77
2018-09-14T15:55:08.001Z,52.14
2018-09-14T15:57:36.210Z,52.21
2018-09-14T16:00:08.929Z,51.55
2018-09-14T16:16:17.581Z,52.55
2018-09-14T16:18:45.709Z,53.10
2018-09-14T16:21:13.961Z,53.67
2018-09-14T16:23:42.193Z,54.14
2018-09-14T16:26:10.564Z,53.58
2018-09-14T16:28:38.561Z,52.95
2018-09-14T16:31:07.211Z,54.52
2018-09-14T16:33:35.494Z,54.26
2018-09-14T16:36:03.671Z,54.13
2018-09-14T16:38:31.785Z,52.80
2018-09-14T16:40:59.956Z,53.23
2018-09-14T16:43:28.111Z,54.23
2018-09-14T16:45:56.332Z,53.99
2018-09-14T16:48:24.542Z,54.92
2018-09-14T16:50:52.816Z,54.05
2018-09-14T16:53:21.042Z,53.85
2018-09-14T16:55:49.302Z,52.39
2018-09-14T16:58:17.536Z,53.74
2018-09-14T17:00:45.665Z,52.90
2018-09-14T17:03:13.803Z,53.91
2018-09-14T17:05:42.109Z,53.86
2018-09-14T17:08:10.333Z,54.08
2018-09-14T17:10:38.533Z,55.07
2018-09-14T17:13:06.936Z,55.04
2018-09-14T17:15:35.216Z,55.39
2018-09-14T17:18:04.495Z,56.75
2018-09-14T17:20:32.912Z,57.35
2018-09-14T17:23:01.075Z,57.94
2018-09-14T17:25:29.415Z,59.61
2018-09-14T17:27:57.587Z,59.78
2018-09-14T17:30:26.646Z,57.87
2018-09-14T17:32:54.884Z,58.55
2018-09-14T17:35:23.150Z,59.02
2018-09-14T17:37:51.481Z,59.39
2018-09-14T17:40:19.552Z,60.83
2018-09-14T17:42:47.727Z,61.50
2018-09-14T17:45:16.873Z,61.67
2018-09-14T17:47:45.246Z,62.34
2018-09-14T17:50:13.480Z,62.13
2018-09-14T17:52:41.970Z,60.21
2018-09-14T17:55:10.106Z,59.68
2018-09-14T17:57:38.213Z,60.58
2018-09-14T18:00:06.711Z,60.98
2018-09-14T18:02:35.209Z,62.27
2018-09-14T18:05:03.621Z,61.89
2018-09-14T18:07:32.109Z,63.23
2018-09-14T18:10:00.581Z,63.87
2018-09-14T18:12:29.786Z,65.25
2018-09-14T18:14:58.225Z,65.36
2018-09-14T18:17:27.066Z,65.65
2018-09-14T18:19:55.501Z,65.17
2018-09-14T18:22:23.752Z,65.32
2018-09-14T18:24:51.990Z,65.63
2018-09-14T18:27:20.130Z,65.20
2018-09-14T18:29:48.321Z,65.20
2018-09-14T18:32:16.565Z,63.76
2018-09-14T18:34:44.732Z,63.59
2018-09-14T18:37:12.943Z,62.83
2018-09-14T18:39:41.088Z,62.57
2018-09-14T18:42:09.405Z,62.51
2018-09-14T18:44:37.673Z,61.49
2018-09-14T18:47:06.462Z,60.21
2018-09-14T18:49:34.786Z,59.66
2018-09-14T18:52:02.975Z,58.95
2018-09-14T18:54:32.165Z,59.30
2018-09-14T18:57:00.380Z,59.02
2018-09-14T18:59:29.562Z,58.61
2018-09-14T19:01:57.707Z,58.24
2018-09-14T19:04:26.841Z,58.46
2018-09-14T19:06:54.913Z,58.55
2018-09-14T19:09:23.116Z,58.14
2018-09-14T19:11:51.309Z,57.95
2018-09-14T19:14:19.510Z,57.55
2018-09-14T19:16:47.662Z,57.38
2018-09-14T19:19:16.241Z,58.08
2018-09-14T19:21:44.424Z,58.17
2018-09-14T19:24:12.670Z,57.94
2018-09-14T19:26:40.850Z,58.14
2018-09-14T19:29:09.130Z,58.54
2018-09-14T19:31:37.371Z,58.73
2018-09-14T19:34:05.724Z,58.24
2018-09-14T19:36:34.685Z,58.72
2018-09-14T19:39:03.241Z,58.55
2018-09-14T19:41:32.088Z,59.24
2018-09-14T19:44:00.260Z,58.28
2018-09-14T19:46:28.471Z,58.97
2018-09-14T19:48:56.666Z,58.49
2018-09-14T19:51:24.822Z,58.50
2018-09-14T19:53:53.012Z,58.67
2018-09-14T19:56:21.207Z,58.95
2018-09-14T19:58:50.618Z,58.17
2018-09-14T20:01:18.738Z,58.74
2018-09-14T20:03:46.969Z,58.59
2018-09-14T20:06:15.346Z,58.76
2018-09-14T20:08:43.694Z,58.59
2018-09-14T20:11:12.113Z,58.38
2018-09-14T20:13:40.391Z,58.40
2018-09-14T20:16:08.634Z,59.15
2018-09-14T20:18:37.847Z,58.48
2018-09-14T21:34:32.715Z,59.63
2018-09-14T21:37:00.965Z,59.38
2018-09-14T21:39:30.881Z,59.28
2018-09-14T21:41:59.571Z,59.89
2018-09-14T21:44:28.670Z,59.82
2018-09-14T21:46:57.156Z,60.23
2018-09-14T21:49:25.240Z,59.55
2018-09-14T21:51:55.323Z,60.44
2018-09-14T21:54:23.504Z,60.68
2018-09-14T21:56:52.104Z,60.89
2018-09-14T21:59:20.216Z,60.95
2018-09-14T22:01:48.950Z,60.99
2018-09-14T22:04:17.189Z,60.56
2018-09-14T22:06:48.151Z,61.31
2018-09-14T22:09:16.940Z,60.89
2018-09-14T22:11:45.280Z,60.74
2018-09-14T22:14:13.260Z,60.39
2018-09-14T22:16:42.492Z,60.88
2018-09-14T22:19:10.517Z,60.77
2018-09-14T22:21:38.972Z,60.28
2018-09-14T22:24:07.081Z,60.45
2018-09-14T22:26:35.162Z,60.63
2018-09-14T22:29:04.556Z,59.77
2018-09-14T22:31:33.041Z,60.59
2018-09-14T22:34:01.168Z,60.68
2018-09-14T22:36:29.407Z,60.03
2018-09-14T22:38:57.386Z,60.14
2018-09-14T22:41:28.375Z,60.35
2018-09-14T22:43:56.530Z,60.54
2018-09-14T22:46:24.812Z,60.69
2018-09-14T22:48:54.141Z,60.91
2018-09-14T22:51:22.267Z,60.64
2018-09-14T22:53:50.326Z,61.12
2018-09-14T22:56:20.401Z,62.22
2018-09-14T22:58:48.940Z,61.38
2018-09-14T23:01:18.695Z,61.86
2018-09-14T23:03:48.416Z,61.13
2018-09-14T23:06:17.695Z,61.62
2018-09-14T23:08:47.160Z,61.67
2018-09-14T23:11:15.385Z,62.12
2018-09-14T23:13:44.712Z,62.02
2018-09-14T23:16:13.695Z,62.59
2018-09-14T23:18:42.087Z,61.82
2018-09-14T23:21:10.295Z,62.06
2018-09-14T23:23:38.920Z,62.61
2018-09-14T23:26:10.633Z,63.10
2018-09-14T23:28:38.947Z,63.38
2018-09-14T23:31:07.150Z,64.48
2018-09-14T23:33:36.391Z,64.19
2018-09-14T23:36:04.578Z,64.09
2018-09-14T23:38:33.029Z,64.79
2018-09-14T23:41:01.300Z,65.24
2018-09-14T23:43:29.524Z,65.04
2018-09-14T23:45:57.913Z,65.35
2018-09-14T23:48:26.014Z,66.11
2018-09-14T23:50:54.254Z,66.10
2018-09-14T23:53:22.221Z,66.00
2018-09-14T23:55:50.611Z,65.92
2018-09-14T23:58:18.690Z,66.28
